Santana — WDG9425 — position and weather

sailwx.info

Track history (hours):
 
Tides and Currents Weather Stations Pressure Air Temp Water Temp Dewpoint Dewpoint Depression Visibility Wind Speed Wind Dir Waves Ship Positions

Santana

Owner: Stephens, Scott, Studio City, CA. More information available from US FCC via Universal Licensing System and Coast Guard Vessel Documentation Center.

Last reported at 2017-Sep-17 22:52 UTC. Time now 2017-Sep-23 16:26 UTC.
Position N 34°10' W 119°14'.

Length 13 m.

Type: Sailing vessel. MMSI: 367587660.

Date/timePositionNaut miles runAvg speedWind from/ knotsBaromVisibWave heightAir tempDewpointWater temp
2017-Sep-17 22:52N 34°10' W 119°14'1 3.8
2017-Sep-17 22:30N 34°09' W 119°13'3 5.3
2017-Sep-17 22:00N 34°07' W 119°12'3 5.4
2017-Sep-17 21:30N 34°05' W 119°10'3 5.7
2017-Sep-17 20:59N 34°02' W 119°07'4 6.4
2017-Sep-17 20:26N 33°60' W 119°05'  
2017-Sep-14 19:27N 34°02' W 118°57'4 7.3
2017-Sep-14 18:57N 34°03' W 119°01'3 7.5
2017-Sep-14 18:30N 34°05' W 119°05'4 7.4
2017-Sep-14 18:00N 34°06' W 119°09'4 7.1
2017-Sep-14 17:30N 34°08' W 119°13'2 0.1
2017-Sep-13 22:53N 34°10' W 119°14'0 0.1
2017-Sep-13 22:29N 34°10' W 119°14'1 1.8
2017-Sep-13 22:00N 34°09' W 119°14'2 4.0
2017-Sep-13 21:29N 34°08' W 119°16'2 3.9
2017-Sep-13 21:00N 34°08' W 119°18'3 5.7
2017-Sep-13 20:26N 34°10' W 119°21'2 4.8
2017-Sep-13 20:00N 34°09' W 119°23'2 4.3
2017-Sep-13 19:30N 34°08' W 119°25'3 5.3
2017-Sep-13 19:00N 34°06' W 119°28'2 4.4
2017-Sep-13 18:30N 34°05' W 119°30'3 6.3
2017-Sep-13 18:00N 34°04' W 119°34'3 6.5
2017-Sep-13 17:29N 34°03' W 119°37'3 0.1
2017-Sep-11 21:36N 34°01' W 119°41'1 4.8
2017-Sep-11 21:28N 34°02' W 119°41'2 4.9
2017-Sep-11 20:59N 34°04' W 119°41'3 6.0
2017-Sep-11 20:29N 34°07' W 119°41'7 6.8
2017-Sep-11 19:27N 34°14' W 119°41'3 6.6
2017-Sep-11 19:00N 34°17' W 119°41'4 6.5
2017-Sep-11 18:27N 34°21' W 119°41'3 5.6
2017-Sep-11 17:54N 34°24' W 119°41'1 0.0
2017-Sep-09 22:25N 34°25' W 119°41'3 6.0
2017-Sep-09 21:52N 34°22' W 119°38'8 6.7
2017-Sep-09 20:39N 34°18' W 119°30'1 7.0
2017-Sep-09 20:26N 34°17' W 119°29'3 7.0
2017-Sep-09 19:58N 34°15' W 119°25'3 6.1
2017-Sep-09 19:28N 34°14' W 119°22'3 6.2
2017-Sep-09 19:00N 34°12' W 119°19'3 6.5
2017-Sep-09 18:29N 34°10' W 119°16'  
Track history (hours):
 
Tides and Currents Weather Stations Pressure Air Temp Water Temp Dewpoint Dewpoint Depression Visibility Wind Speed Wind Dir Waves Ship Positions

Santana

Owner: Stephens, Scott, Studio City, CA. More information available from US FCC via Universal Licensing System and Coast Guard Vessel Documentation Center.

Last reported at 2017-Sep-17 22:52 UTC. Time now 2017-Sep-23 16:26 UTC.
Position N 34°10' W 119°14'.

Length 13 m.

Type: Sailing vessel. MMSI: 367587660.

Date/timePositionNaut miles runAvg speedWind from/ knotsBaromVisibWave heightAir tempDewpointWater temp
2017-Sep-17 22:52N 34°10' W 119°14'1 3.8
2017-Sep-17 22:30N 34°09' W 119°13'3 5.3
2017-Sep-17 22:00N 34°07' W 119°12'3 5.4
2017-Sep-17 21:30N 34°05' W 119°10'3 5.7
2017-Sep-17 20:59N 34°02' W 119°07'4 6.4
2017-Sep-17 20:26N 33°60' W 119°05'  
2017-Sep-14 19:27N 34°02' W 118°57'4 7.3
2017-Sep-14 18:57N 34°03' W 119°01'3 7.5
2017-Sep-14 18:30N 34°05' W 119°05'4 7.4
2017-Sep-14 18:00N 34°06' W 119°09'4 7.1
2017-Sep-14 17:30N 34°08' W 119°13'2 0.1
2017-Sep-13 22:53N 34°10' W 119°14'0 0.1
2017-Sep-13 22:29N 34°10' W 119°14'1 1.8
2017-Sep-13 22:00N 34°09' W 119°14'2 4.0
2017-Sep-13 21:29N 34°08' W 119°16'2 3.9
2017-Sep-13 21:00N 34°08' W 119°18'3 5.7
2017-Sep-13 20:26N 34°10' W 119°21'2 4.8
2017-Sep-13 20:00N 34°09' W 119°23'2 4.3
2017-Sep-13 19:30N 34°08' W 119°25'3 5.3
2017-Sep-13 19:00N 34°06' W 119°28'2 4.4
2017-Sep-13 18:30N 34°05' W 119°30'3 6.3
2017-Sep-13 18:00N 34°04' W 119°34'3 6.5
2017-Sep-13 17:29N 34°03' W 119°37'3 0.1
2017-Sep-11 21:36N 34°01' W 119°41'1 4.8
2017-Sep-11 21:28N 34°02' W 119°41'2 4.9
2017-Sep-11 20:59N 34°04' W 119°41'3 6.0
2017-Sep-11 20:29N 34°07' W 119°41'7 6.8
2017-Sep-11 19:27N 34°14' W 119°41'3 6.6
2017-Sep-11 19:00N 34°17' W 119°41'4 6.5
2017-Sep-11 18:27N 34°21' W 119°41'3 5.6
2017-Sep-11 17:54N 34°24' W 119°41'1 0.0
2017-Sep-09 22:25N 34°25' W 119°41'3 6.0
2017-Sep-09 21:52N 34°22' W 119°38'8 6.7
2017-Sep-09 20:39N 34°18' W 119°30'1 7.0
2017-Sep-09 20:26N 34°17' W 119°29'3 7.0
2017-Sep-09 19:58N 34°15' W 119°25'3 6.1
2017-Sep-09 19:28N 34°14' W 119°22'3 6.2
2017-Sep-09 19:00N 34°12' W 119°19'3 6.5
2017-Sep-09 18:29N 34°10' W 119°16'  

Dump ship's entire track history